SARE/RES METAR and TAF weather

Enter ICAO airport designator
Station Type Date Time Source
SARE METAR 2020/07/15 01:00 UTC NOAA

SARE 150100Z 14003KT CAVOK 07/03 Q1024


Station Type Date Time Source
SARE Decoded METAR 2020/07/15 01:00 UTC NOAA

Resistencia Aero., Argentina (SARE) 27-27S 059-03W 52M
Jul 14, 2020 - 09:00 PM EDT / 2020.07.15 0100 UTC
Wind: from the SE (140 degrees) at 3 MPH (3 KT):0
Visibility: greater than 7 mile(s):0
Temperature: 44 F (7 C)
Dew Point: 37 F (3 C)
Relative Humidity: 75%
Pressure (altimeter): 30.24 in. Hg (1024 hPa)
ob: SARE 150100Z 14003KT CAVOK 07/03 Q1024
cycle: 1

Station Type Date Time Source
SARE TAF 2020/07/15 00:00 UTC NOAA

TAF SARE 142300Z 1500/1524 09005KT CAVOK TX18/1519Z TN00/1510Z

Example: see airport list